sensor_id;sensor_type;location;lat;lon;timestamp;pressure;altitude;pressure_sealevel;temperature;humidity
59829;BME280;45708;51.848;107.620;2023-08-20T00:01:57;94450.19;;;12.26;76.43
59829;BME280;45708;51.848;107.620;2023-08-20T00:06:59;94441.81;;;12.34;75.91
59829;BME280;45708;51.848;107.620;2023-08-20T00:12:00;94450.63;;;12.83;75.27
59829;BME280;45708;51.848;107.620;2023-08-20T00:17:03;94445.06;;;13.33;74.24
59829;BME280;45708;51.848;107.620;2023-08-20T00:22:05;94446.44;;;14.05;72.83
59829;BME280;45708;51.848;107.620;2023-08-20T00:27:06;94450.53;;;15.78;69.82
59829;BME280;45708;51.848;107.620;2023-08-20T00:32:07;94433.50;;;19.88;60.88
59829;BME280;45708;51.848;107.620;2023-08-20T00:37:08;94441.13;;;22.94;55.59
59829;BME280;45708;51.848;107.620;2023-08-20T00:42:09;94436.63;;;24.50;52.56
59829;BME280;45708;51.848;107.620;2023-08-20T00:47:10;94432.56;;;25.41;51.16
59829;BME280;45708;51.848;107.620;2023-08-20T00:52:17;94421.28;;;26.55;52.79
59829;BME280;45708;51.848;107.620;2023-08-20T00:57:18;94431.91;;;26.48;48.56
59829;BME280;45708;51.848;107.620;2023-08-20T01:02:20;94423.19;;;27.12;47.59
59829;BME280;45708;51.848;107.620;2023-08-20T01:07:29;94422.00;;;27.74;49.56
59829;BME280;45708;51.848;107.620;2023-08-20T01:12:31;94426.59;;;27.86;45.98
59829;BME280;45708;51.848;107.620;2023-08-20T01:17:34;94425.59;;;28.46;44.41
59829;BME280;45708;51.848;107.620;2023-08-20T01:33:20;94406.19;;;29.07;41.95
59829;BME280;45708;51.848;107.620;2023-08-20T01:38:21;94417.56;;;28.97;42.04
59829;BME280;45708;51.848;107.620;2023-08-20T01:43:22;94409.84;;;28.68;40.42
59829;BME280;45708;51.848;107.620;2023-08-20T01:48:23;94409.47;;;28.54;40.39
59829;BME280;45708;51.848;107.620;2023-08-20T01:53:25;94409.28;;;28.62;40.26
59829;BME280;45708;51.848;107.620;2023-08-20T01:58:25;94408.78;;;28.01;39.30
59829;BME280;45708;51.848;107.620;2023-08-20T02:03:27;94404.59;;;27.63;39.47
59829;BME280;45708;51.848;107.620;2023-08-20T02:08:28;94401.47;;;27.37;39.04
59829;BME280;45708;51.848;107.620;2023-08-20T02:13:30;94394.78;;;26.73;39.37
59829;BME280;45708;51.848;107.620;2023-08-20T02:18:31;94403.03;;;26.64;39.39
59829;BME280;45708;51.848;107.620;2023-08-20T02:23:32;94401.00;;;26.98;38.20
59829;BME280;45708;51.848;107.620;2023-08-20T02:28:33;94394.44;;;26.17;38.81
59829;BME280;45708;51.848;107.620;2023-08-20T02:33:34;94386.22;;;26.26;39.09
59829;BME280;45708;51.848;107.620;2023-08-20T02:38:35;94370.88;;;25.64;38.94
59829;BME280;45708;51.848;107.620;2023-08-20T02:43:36;94400.34;;;23.52;42.20
59829;BME280;45708;51.848;107.620;2023-08-20T02:48:38;94384.94;;;21.41;45.47
59829;BME280;45708;51.848;107.620;2023-08-20T02:53:39;94392.91;;;20.69;46.78
59829;BME280;45708;51.848;107.620;2023-08-20T02:58:40;94386.81;;;20.35;46.46
59829;BME280;45708;51.848;107.620;2023-08-20T03:03:41;94385.28;;;19.69;47.22
59829;BME280;45708;51.848;107.620;2023-08-20T03:08:43;94392.47;;;19.88;47.06
59829;BME280;45708;51.848;107.620;2023-08-20T03:13:44;94384.91;;;19.76;46.95
59829;BME280;45708;51.848;107.620;2023-08-20T03:18:46;94381.91;;;19.07;48.06
59829;BME280;45708;51.848;107.620;2023-08-20T03:23:47;94378.81;;;18.76;48.56
59829;BME280;45708;51.848;107.620;2023-08-20T03:28:47;94380.94;;;19.17;48.30
59829;BME280;45708;51.848;107.620;2023-08-20T03:33:49;94372.44;;;19.85;47.27
59829;BME280;45708;51.848;107.620;2023-08-20T03:38:50;94369.25;;;19.83;46.89
59829;BME280;45708;51.848;107.620;2023-08-20T03:43:51;94365.25;;;19.29;47.57
59829;BME280;45708;51.848;107.620;2023-08-20T03:48:53;94377.81;;;18.91;48.32
59829;BME280;45708;51.848;107.620;2023-08-20T03:53:54;94358.50;;;19.32;48.16
59829;BME280;45708;51.848;107.620;2023-08-20T03:58:55;94358.78;;;19.68;47.71
59829;BME280;45708;51.848;107.620;2023-08-20T04:03:56;94368.56;;;19.21;48.35
59829;BME280;45708;51.848;107.620;2023-08-20T04:08:57;94374.47;;;18.33;49.87
59829;BME280;45708;51.848;107.620;2023-08-20T04:14:01;94369.28;;;17.93;50.86
59829;BME280;45708;51.848;107.620;2023-08-20T04:19:02;94367.00;;;17.77;50.56
59829;BME280;45708;51.848;107.620;2023-08-20T04:24:03;94343.59;;;18.21;49.74
59829;BME280;45708;51.848;107.620;2023-08-20T04:29:05;94353.44;;;18.74;48.30
59829;BME280;45708;51.848;107.620;2023-08-20T04:34:06;94350.06;;;18.87;48.13
59829;BME280;45708;51.848;107.620;2023-08-20T04:39:09;94339.28;;;18.92;47.87
59829;BME280;45708;51.848;107.620;2023-08-20T04:44:10;94336.59;;;19.11;46.85
59829;BME280;45708;51.848;107.620;2023-08-20T04:49:11;94329.44;;;19.25;46.54
59829;BME280;45708;51.848;107.620;2023-08-20T04:54:12;94327.88;;;19.57;45.92
59829;BME280;45708;51.848;107.620;2023-08-20T04:59:13;94341.03;;;19.72;45.48
59829;BME280;45708;51.848;107.620;2023-08-20T05:04:15;94329.13;;;19.45;44.80
59829;BME280;45708;51.848;107.620;2023-08-20T05:09:16;94341.31;;;19.52;44.76
59829;BME280;45708;51.848;107.620;2023-08-20T05:14:17;94315.13;;;19.49;43.74
59829;BME280;45708;51.848;107.620;2023-08-20T05:19:18;94311.78;;;19.57;43.74
59829;BME280;45708;51.848;107.620;2023-08-20T05:24:19;94312.22;;;19.64;43.44
59829;BME280;45708;51.848;107.620;2023-08-20T05:29:20;94311.03;;;19.70;43.33
59829;BME280;45708;51.848;107.620;2023-08-20T05:34:22;94302.31;;;19.78;43.45
59829;BME280;45708;51.848;107.620;2023-08-20T05:39:23;94310.84;;;19.80;43.51
59829;BME280;45708;51.848;107.620;2023-08-20T05:44:24;94308.47;;;19.65;43.76
59829;BME280;45708;51.848;107.620;2023-08-20T05:49:25;94311.09;;;19.84;44.07
59829;BME280;45708;51.848;107.620;2023-08-20T05:54:27;94303.31;;;19.82;44.25
59829;BME280;45708;51.848;107.620;2023-08-20T05:59:29;94289.91;;;19.82;44.69
59829;BME280;45708;51.848;107.620;2023-08-20T06:04:31;94308.09;;;19.85;43.90
59829;BME280;45708;51.848;107.620;2023-08-20T06:09:32;94299.06;;;19.49;44.23
59829;BME280;45708;51.848;107.620;2023-08-20T06:14:33;94299.41;;;18.91;44.89
59829;BME280;45708;51.848;107.620;2023-08-20T06:19:34;94291.84;;;18.55;45.71
59829;BME280;45708;51.848;107.620;2023-08-20T06:24:35;94298.53;;;18.76;45.50
59829;BME280;45708;51.848;107.620;2023-08-20T06:29:37;94308.91;;;19.34;44.86
59829;BME280;45708;51.848;107.620;2023-08-20T06:34:38;94305.28;;;19.63;44.12
59829;BME280;45708;51.848;107.620;2023-08-20T06:39:40;94291.41;;;19.74;43.71
59829;BME280;45708;51.848;107.620;2023-08-20T06:44:40;94296.59;;;19.85;43.71
59829;BME280;45708;51.848;107.620;2023-08-20T06:49:42;94288.47;;;20.03;43.46
59829;BME280;45708;51.848;107.620;2023-08-20T06:54:44;94297.59;;;19.89;42.93
59829;BME280;45708;51.848;107.620;2023-08-20T06:59:45;94297.91;;;19.55;43.56
59829;BME280;45708;51.848;107.620;2023-08-20T07:04:47;94305.59;;;19.75;42.82
59829;BME280;45708;51.848;107.620;2023-08-20T07:09:48;94277.31;;;19.96;42.52
59829;BME280;45708;51.848;107.620;2023-08-20T07:14:49;94294.41;;;20.14;41.90
59829;BME280;45708;51.848;107.620;2023-08-20T07:19:50;94291.25;;;20.26;41.88
59829;BME280;45708;51.848;107.620;2023-08-20T07:24:52;94287.66;;;19.89;42.45
59829;BME280;45708;51.848;107.620;2023-08-20T07:29:54;94299.59;;;20.11;42.02
59829;BME280;45708;51.848;107.620;2023-08-20T07:34:55;94279.22;;;20.37;41.63
59829;BME280;45708;51.848;107.620;2023-08-20T07:39:56;94274.75;;;20.32;41.58
59829;BME280;45708;51.848;107.620;2023-08-20T07:44:58;94280.50;;;20.40;41.73
59829;BME280;45708;51.848;107.620;2023-08-20T07:50:00;94287.38;;;20.32;41.82
59829;BME280;45708;51.848;107.620;2023-08-20T07:55:01;94274.38;;;20.12;42.11
59829;BME280;45708;51.848;107.620;2023-08-20T08:00:02;94285.97;;;20.07;42.36
59829;BME280;45708;51.848;107.620;2023-08-20T08:05:03;94287.44;;;19.99;42.25
59829;BME280;45708;51.848;107.620;2023-08-20T08:10:05;94284.69;;;20.04;42.41
59829;BME280;45708;51.848;107.620;2023-08-20T08:15:07;94293.63;;;20.14;42.25
59829;BME280;45708;51.848;107.620;2023-08-20T08:20:08;94297.97;;;19.96;42.96
59829;BME280;45708;51.848;107.620;2023-08-20T08:25:09;94301.53;;;19.78;43.01
59829;BME280;45708;51.848;107.620;2023-08-20T08:30:11;94295.81;;;19.84;43.00
59829;BME280;45708;51.848;107.620;2023-08-20T08:35:12;94292.03;;;19.85;42.99
59829;BME280;45708;51.848;107.620;2023-08-20T08:40:13;94222.38;;;19.20;43.05
59829;BME280;45708;51.848;107.620;2023-08-20T08:45:14;94293.50;;;19.45;43.40
59829;BME280;45708;51.848;107.620;2023-08-20T08:50:17;94292.69;;;19.44;43.02
59829;BME280;45708;51.848;107.620;2023-08-20T08:55:18;94283.72;;;19.35;43.39
59829;BME280;45708;51.848;107.620;2023-08-20T09:00:21;94301.44;;;19.50;43.58
59829;BME280;45708;51.848;107.620;2023-08-20T09:05:22;94301.69;;;19.54;43.75
59829;BME280;45708;51.848;107.620;2023-08-20T09:10:26;94232.09;;;18.83;43.78
59829;BME280;45708;51.848;107.620;2023-08-20T09:15:33;94310.25;;;18.80;44.44
59829;BME280;45708;51.848;107.620;2023-08-20T09:20:35;94305.63;;;18.67;44.83
59829;BME280;45708;51.848;107.620;2023-08-20T09:25:36;94324.16;;;18.82;45.18
59829;BME280;45708;51.848;107.620;2023-08-20T09:30:37;94329.22;;;19.03;44.69
59829;BME280;45708;51.848;107.620;2023-08-20T09:35:38;94335.88;;;19.24;44.14
59829;BME280;45708;51.848;107.620;2023-08-20T09:40:51;94335.69;;;19.34;44.16
59829;BME280;45708;51.848;107.620;2023-08-20T09:45:54;94334.47;;;19.45;44.13
59829;BME280;45708;51.848;107.620;2023-08-20T09:50:59;94330.56;;;19.38;44.50
59829;BME280;45708;51.848;107.620;2023-08-20T09:56:09;94329.78;;;19.19;44.52
59829;BME280;45708;51.848;107.620;2023-08-20T10:01:12;94327.59;;;19.02;45.08
59829;BME280;45708;51.848;107.620;2023-08-20T10:06:13;94318.56;;;18.79;45.32
59829;BME280;45708;51.848;107.620;2023-08-20T10:11:14;94333.81;;;18.78;45.38
59829;BME280;45708;51.848;107.620;2023-08-20T10:16:17;94326.81;;;18.64;45.36
59829;BME280;45708;51.848;107.620;2023-08-20T10:21:18;94333.47;;;18.61;45.62
59829;BME280;45708;51.848;107.620;2023-08-20T10:26:23;94326.09;;;18.53;45.86
59829;BME280;45708;51.848;107.620;2023-08-20T10:31:25;94333.19;;;18.44;45.91
59829;BME280;45708;51.848;107.620;2023-08-20T10:36:26;94334.88;;;18.35;46.06
59829;BME280;45708;51.848;107.620;2023-08-20T10:41:28;94341.97;;;18.26;46.18
59829;BME280;45708;51.848;107.620;2023-08-20T10:46:29;94336.34;;;17.98;46.60
59829;BME280;45708;51.848;107.620;2023-08-20T10:51:37;94335.47;;;17.79;46.85
59829;BME280;45708;51.848;107.620;2023-08-20T11:01:47;94351.00;;;17.77;47.56
59829;BME280;45708;51.848;107.620;2023-08-20T11:06:59;94354.81;;;17.66;47.31
59829;BME280;45708;51.848;107.620;2023-08-20T11:12:00;94352.50;;;17.54;48.09
59829;BME280;45708;51.848;107.620;2023-08-20T11:17:01;94371.56;;;17.42;48.48
59829;BME280;45708;51.848;107.620;2023-08-20T11:22:02;94361.56;;;17.24;48.53
59829;BME280;45708;51.848;107.620;2023-08-20T11:27:03;94373.34;;;17.13;48.98
59829;BME280;45708;51.848;107.620;2023-08-20T11:32:04;94383.03;;;16.98;49.40
59829;BME280;45708;51.848;107.620;2023-08-20T11:37:06;94369.28;;;16.76;49.76
59829;BME280;45708;51.848;107.620;2023-08-20T11:42:07;94388.00;;;16.66;49.96
59829;BME280;45708;51.848;107.620;2023-08-20T11:47:17;94390.75;;;16.46;50.11
59829;BME280;45708;51.848;107.620;2023-08-20T11:52:19;94388.94;;;16.21;51.05
59829;BME280;45708;51.848;107.620;2023-08-20T11:57:19;94396.44;;;16.08;51.57
59829;BME280;45708;51.848;107.620;2023-08-20T12:02:27;94395.13;;;15.91;51.72
59829;BME280;45708;51.848;107.620;2023-08-20T12:07:28;94397.78;;;15.80;52.48
59829;BME280;45708;51.848;107.620;2023-08-20T12:12:30;94410.59;;;15.63;52.61
59829;BME280;45708;51.848;107.620;2023-08-20T12:17:31;94426.00;;;15.46;53.37
59829;BME280;45708;51.848;107.620;2023-08-20T12:22:32;94428.63;;;15.31;53.83
59829;BME280;45708;51.848;107.620;2023-08-20T12:27:34;94428.88;;;15.14;54.08
59829;BME280;45708;51.848;107.620;2023-08-20T12:32:35;94423.75;;;14.97;54.79
59829;BME280;45708;51.848;107.620;2023-08-20T12:37:35;94447.41;;;14.88;54.92
59829;BME280;45708;51.848;107.620;2023-08-20T12:42:37;94449.22;;;14.78;55.77
59829;BME280;45708;51.848;107.620;2023-08-20T12:47:38;94446.03;;;14.71;56.32
59829;BME280;45708;51.848;107.620;2023-08-20T12:52:40;94453.47;;;14.69;56.54
59829;BME280;45708;51.848;107.620;2023-08-20T12:57:56;94451.06;;;14.67;55.68
59829;BME280;45708;51.848;107.620;2023-08-20T13:02:57;94456.66;;;14.71;57.30
59829;BME280;45708;51.848;107.620;2023-08-20T13:07:58;94454.50;;;14.63;57.36
59829;BME280;45708;51.848;107.620;2023-08-20T13:13:03;94445.94;;;14.50;57.32
59829;BME280;45708;51.848;107.620;2023-08-20T13:18:04;94437.56;;;14.31;57.92
59829;BME280;45708;51.848;107.620;2023-08-20T13:23:05;94464.94;;;14.32;58.46
59829;BME280;45708;51.848;107.620;2023-08-20T13:28:06;94453.75;;;14.25;58.67
59829;BME280;45708;51.848;107.620;2023-08-20T13:33:07;94466.22;;;14.24;58.80
59829;BME280;45708;51.848;107.620;2023-08-20T13:38:10;94457.72;;;14.22;59.13
59829;BME280;45708;51.848;107.620;2023-08-20T13:43:11;94447.25;;;14.06;59.62
59829;BME280;45708;51.848;107.620;2023-08-20T13:48:13;94442.41;;;13.97;59.59
59829;BME280;45708;51.848;107.620;2023-08-20T13:53:14;94440.22;;;13.89;60.02
59829;BME280;45708;51.848;107.620;2023-08-20T13:58:15;94437.47;;;13.79;60.86
59829;BME280;45708;51.848;107.620;2023-08-20T14:03:16;94448.28;;;13.67;61.16
59829;BME280;45708;51.848;107.620;2023-08-20T14:08:17;94446.41;;;13.63;61.49
59829;BME280;45708;51.848;107.620;2023-08-20T14:13:18;94445.78;;;13.56;61.87
59829;BME280;45708;51.848;107.620;2023-08-20T14:18:18;94450.53;;;13.49;62.08
59829;BME280;45708;51.848;107.620;2023-08-20T14:23:19;94435.00;;;13.35;61.76
59829;BME280;45708;51.848;107.620;2023-08-20T14:28:22;94454.19;;;13.43;62.08
59829;BME280;45708;51.848;107.620;2023-08-20T14:33:23;94452.53;;;13.36;62.30
59829;BME280;45708;51.848;107.620;2023-08-20T14:38:24;94433.31;;;13.24;62.66
59829;BME280;45708;51.848;107.620;2023-08-20T14:43:25;94441.53;;;13.23;62.77
59829;BME280;45708;51.848;107.620;2023-08-20T14:48:26;94428.38;;;13.11;62.79
59829;BME280;45708;51.848;107.620;2023-08-20T14:53:27;94448.84;;;13.16;63.05
59829;BME280;45708;51.848;107.620;2023-08-20T14:58:28;94445.31;;;13.05;63.62
59829;BME280;45708;51.848;107.620;2023-08-20T15:03:29;94444.09;;;12.91;63.74
59829;BME280;45708;51.848;107.620;2023-08-20T15:08:30;94447.19;;;12.83;64.30
59829;BME280;45708;51.848;107.620;2023-08-20T15:13:31;94447.06;;;12.72;64.55
59829;BME280;45708;51.848;107.620;2023-08-20T15:18:33;94429.91;;;12.58;64.48
59829;BME280;45708;51.848;107.620;2023-08-20T15:23:34;94430.31;;;12.45;65.33
59829;BME280;45708;51.848;107.620;2023-08-20T15:28:35;94444.59;;;12.44;65.24
59829;BME280;45708;51.848;107.620;2023-08-20T15:33:37;94435.25;;;12.19;65.82
59829;BME280;45708;51.848;107.620;2023-08-20T15:38:37;94443.69;;;12.16;66.27
59829;BME280;45708;51.848;107.620;2023-08-20T15:43:38;94432.34;;;11.99;66.38
59829;BME280;45708;51.848;107.620;2023-08-20T15:48:39;94446.13;;;12.01;66.64
59829;BME280;45708;51.848;107.620;2023-08-20T15:53:41;94446.13;;;12.01;66.69
59829;BME280;45708;51.848;107.620;2023-08-20T15:58:42;94452.94;;;11.97;66.76
59829;BME280;45708;51.848;107.620;2023-08-20T16:03:43;94445.69;;;11.87;67.17
59829;BME280;45708;51.848;107.620;2023-08-20T16:08:44;94435.56;;;11.68;67.48
59829;BME280;45708;51.848;107.620;2023-08-20T16:13:46;94429.94;;;11.47;67.83
59829;BME280;45708;51.848;107.620;2023-08-20T16:18:47;94448.78;;;11.51;68.13
59829;BME280;45708;51.848;107.620;2023-08-20T16:23:48;94458.47;;;11.45;68.22
59829;BME280;45708;51.848;107.620;2023-08-20T16:28:48;94451.09;;;11.31;69.03
59829;BME280;45708;51.848;107.620;2023-08-20T16:33:49;94436.78;;;11.15;69.42
59829;BME280;45708;51.848;107.620;2023-08-20T16:38:50;94437.19;;;11.07;69.80
59829;BME280;45708;51.848;107.620;2023-08-20T16:43:51;94437.56;;;10.98;69.95
59829;BME280;45708;51.848;107.620;2023-08-20T16:48:52;94439.31;;;10.93;70.13
59829;BME280;45708;51.848;107.620;2023-08-20T16:53:52;94437.88;;;10.85;70.01
59829;BME280;45708;51.848;107.620;2023-08-20T16:58:54;94425.63;;;10.68;70.34
59829;BME280;45708;51.848;107.620;2023-08-20T17:03:55;94434.94;;;10.70;70.76
59829;BME280;45708;51.848;107.620;2023-08-20T17:08:55;94434.84;;;10.65;70.66
59829;BME280;45708;51.848;107.620;2023-08-20T17:13:56;94437.25;;;10.55;70.82
59829;BME280;45708;51.848;107.620;2023-08-20T17:18:58;94436.38;;;10.49;70.89
59829;BME280;45708;51.848;107.620;2023-08-20T17:23:58;94445.09;;;10.50;71.63
59829;BME280;45708;51.848;107.620;2023-08-20T17:28:59;94446.94;;;10.49;71.33
59829;BME280;45708;51.848;107.620;2023-08-20T17:34:00;94446.94;;;10.38;71.71
59829;BME280;45708;51.848;107.620;2023-08-20T17:39:01;94435.72;;;10.30;71.88
59829;BME280;45708;51.848;107.620;2023-08-20T17:44:02;94430.19;;;10.20;72.00
59829;BME280;45708;51.848;107.620;2023-08-20T17:49:02;94431.59;;;10.11;71.88
59829;BME280;45708;51.848;107.620;2023-08-20T17:54:03;94444.09;;;10.16;72.42
59829;BME280;45708;51.848;107.620;2023-08-20T17:59:05;94431.25;;;10.07;71.96
59829;BME280;45708;51.848;107.620;2023-08-20T18:04:06;94435.59;;;10.14;72.19
59829;BME280;45708;51.848;107.620;2023-08-20T18:09:07;94439.88;;;10.26;72.08
59829;BME280;45708;51.848;107.620;2023-08-20T18:14:07;94441.66;;;10.38;72.61
59829;BME280;45708;51.848;107.620;2023-08-20T18:19:08;94439.59;;;10.40;72.60
59829;BME280;45708;51.848;107.620;2023-08-20T18:24:09;94443.75;;;10.35;72.41
59829;BME280;45708;51.848;107.620;2023-08-20T18:29:10;94429.50;;;10.36;72.75
59829;BME280;45708;51.848;107.620;2023-08-20T18:34:11;94434.91;;;10.42;72.46
59829;BME280;45708;51.848;107.620;2023-08-20T18:39:11;94434.78;;;10.36;72.66
59829;BME280;45708;51.848;107.620;2023-08-20T18:44:12;94421.97;;;10.28;72.77
59829;BME280;45708;51.848;107.620;2023-08-20T18:49:13;94419.63;;;10.20;73.14
59829;BME280;45708;51.848;107.620;2023-08-20T18:54:14;94439.13;;;10.19;72.89
59829;BME280;45708;51.848;107.620;2023-08-20T18:59:14;94443.66;;;10.07;73.15
59829;BME280;45708;51.848;107.620;2023-08-20T19:04:15;94437.09;;;9.98;73.74
59829;BME280;45708;51.848;107.620;2023-08-20T19:09:16;94450.19;;;9.93;73.93
59829;BME280;45708;51.848;107.620;2023-08-20T19:14:17;94447.09;;;9.84;74.03
59829;BME280;45708;51.848;107.620;2023-08-20T19:19:18;94447.66;;;9.74;74.35
59829;BME280;45708;51.848;107.620;2023-08-20T19:24:18;94451.22;;;9.68;74.52
59829;BME280;45708;51.848;107.620;2023-08-20T19:29:19;94461.88;;;9.62;74.58
59829;BME280;45708;51.848;107.620;2023-08-20T19:34:21;94471.03;;;9.59;74.60
59829;BME280;45708;51.848;107.620;2023-08-20T19:39:22;94471.16;;;9.53;75.56
59829;BME280;45708;51.848;107.620;2023-08-20T19:44:23;94442.84;;;9.48;74.84
59829;BME280;45708;51.848;107.620;2023-08-20T19:49:24;94463.81;;;9.55;75.30
59829;BME280;45708;51.848;107.620;2023-08-20T19:54:24;94470.56;;;9.51;75.18
59829;BME280;45708;51.848;107.620;2023-08-20T19:59:25;94478.72;;;9.49;75.08
59829;BME280;45708;51.848;107.620;2023-08-20T20:04:26;94473.31;;;9.44;75.70
59829;BME280;45708;51.848;107.620;2023-08-20T20:09:27;94471.13;;;9.41;75.97
59829;BME280;45708;51.848;107.620;2023-08-20T20:14:28;94473.97;;;9.39;75.90
59829;BME280;45708;51.848;107.620;2023-08-20T20:19:29;94454.59;;;9.22;76.26
59829;BME280;45708;51.848;107.620;2023-08-20T20:24:30;94474.88;;;9.22;76.27
59829;BME280;45708;51.848;107.620;2023-08-20T20:29:30;94481.03;;;9.15;76.76
59829;BME280;45708;51.848;107.620;2023-08-20T20:34:31;94483.88;;;9.14;76.50
59829;BME280;45708;51.848;107.620;2023-08-20T20:39:32;94488.81;;;9.10;76.64
59829;BME280;45708;51.848;107.620;2023-08-20T20:44:33;94479.97;;;9.05;77.03
59829;BME280;45708;51.848;107.620;2023-08-20T20:49:34;94473.75;;;8.99;76.94
59829;BME280;45708;51.848;107.620;2023-08-20T20:54:35;94470.41;;;8.92;77.34
59829;BME280;45708;51.848;107.620;2023-08-20T20:59:36;94475.44;;;8.82;77.55
59829;BME280;45708;51.848;107.620;2023-08-20T21:04:37;94479.50;;;8.78;77.79
59829;BME280;45708;51.848;107.620;2023-08-20T21:09:38;94478.94;;;8.76;77.68
59829;BME280;45708;51.848;107.620;2023-08-20T21:14:39;94472.81;;;8.64;77.76
59829;BME280;45708;51.848;107.620;2023-08-20T21:19:39;94480.34;;;8.60;77.57
59829;BME280;45708;51.848;107.620;2023-08-20T21:24:41;94485.09;;;8.51;77.80
59829;BME280;45708;51.848;107.620;2023-08-20T21:29:42;94479.72;;;8.46;77.77
59829;BME280;45708;51.848;107.620;2023-08-20T21:34:43;94473.13;;;8.37;78.15
59829;BME280;45708;51.848;107.620;2023-08-20T21:39:44;94474.34;;;8.35;78.28
59829;BME280;45708;51.848;107.620;2023-08-20T21:44:45;94471.91;;;8.33;78.33
59829;BME280;45708;51.848;107.620;2023-08-20T21:49:46;94472.66;;;8.40;78.28
59829;BME280;45708;51.848;107.620;2023-08-20T21:54:47;94483.94;;;8.47;78.58
59829;BME280;45708;51.848;107.620;2023-08-20T21:59:49;94476.06;;;8.47;78.54
59829;BME280;45708;51.848;107.620;2023-08-20T22:15:23;94484.97;;;8.65;78.34
59829;BME280;45708;51.848;107.620;2023-08-20T22:20:24;94496.78;;;8.74;78.44
59829;BME280;45708;51.848;107.620;2023-08-20T22:25:24;94502.47;;;8.89;78.32
59829;BME280;45708;51.848;107.620;2023-08-20T22:30:25;94499.75;;;8.96;78.00
59829;BME280;45708;51.848;107.620;2023-08-20T22:35:26;94504.06;;;9.20;78.06
59829;BME280;45708;51.848;107.620;2023-08-20T22:40:27;94500.56;;;9.38;78.17
59829;BME280;45708;51.848;107.620;2023-08-20T22:45:28;94505.22;;;9.77;77.65
59829;BME280;45708;51.848;107.620;2023-08-20T22:50:29;94488.84;;;9.99;76.79
59829;BME280;45708;51.848;107.620;2023-08-20T22:55:31;94513.66;;;10.33;76.67
59829;BME280;45708;51.848;107.620;2023-08-20T23:21:12;94508.56;;;11.07;75.76
59829;BME280;45708;51.848;107.620;2023-08-20T23:26:13;94510.25;;;11.41;75.52
59829;BME280;45708;51.848;107.620;2023-08-20T23:31:14;94502.38;;;12.47;73.19
59829;BME280;45708;51.848;107.620;2023-08-20T23:36:15;94498.28;;;13.49;71.03
59829;BME280;45708;51.848;107.620;2023-08-20T23:41:16;94501.25;;;14.21;69.12
59829;BME280;45708;51.848;107.620;2023-08-20T23:46:17;94501.44;;;13.78;70.27
59829;BME280;45708;51.848;107.620;2023-08-20T23:51:18;94517.34;;;13.46;70.71
59829;BME280;45708;51.848;107.620;2023-08-20T23:56:19;94515.00;;;14.13;69.23
